Terminal Aerodrome Forecast
Issued by NWS

Home | Current Version | Previous Version | Text Only | Print | Product List | Glossary On
Versions: 1 2 3 4 5 6 7 8 9 10 11 12 13 14 15 16 17 18 19 20 21 22 23 24
000
FTAK31 PAFA 260530
TAFAOM
TAF
PAOM 260530Z 2606/2706 07009KT P6SM OVC080
     FM260700 07010KT 5SM -SN BR BKN020
     FM261800 09012KT 2SM -SN BR BKN015=

USA.gov is the U.S. government's official web portal to all federal, state and local government web resources and services.